createdAt,value
2019-05-25T00:01:21.572Z,15.50
2019-05-25T00:03:52.725Z,15.50
2019-05-25T00:06:21.240Z,15.50
2019-05-25T00:08:49.712Z,15.50
2019-05-25T00:11:18.093Z,15.50
2019-05-25T00:13:46.517Z,15.40
2019-05-25T00:16:15.000Z,15.50
2019-05-25T00:18:43.390Z,15.40
2019-05-25T00:21:14.210Z,15.40
2019-05-25T00:23:42.221Z,15.30
2019-05-25T00:26:10.689Z,15.30
2019-05-25T00:28:39.196Z,15.30
2019-05-25T00:31:10.030Z,15.20
2019-05-25T00:33:38.931Z,15.20
2019-05-25T00:36:07.289Z,15.10
2019-05-25T00:38:35.754Z,15.20
2019-05-25T00:41:06.423Z,15.20
2019-05-25T00:43:34.869Z,15.10
2019-05-25T00:46:03.346Z,15.10
2019-05-25T00:48:32.524Z,15.00
2019-05-25T00:51:01.821Z,15.00
2019-05-25T00:53:30.393Z,15.00
2019-05-25T00:56:00.682Z,14.90
2019-05-25T00:58:29.162Z,14.90
2019-05-25T01:00:57.863Z,14.90
2019-05-25T01:03:26.314Z,14.80
2019-05-25T01:05:54.776Z,14.70
2019-05-25T01:08:26.315Z,14.70
2019-05-25T01:10:56.180Z,14.70
2019-05-25T01:13:24.747Z,14.60
2019-05-25T01:15:53.210Z,14.60
2019-05-25T01:18:21.593Z,14.50
2019-05-25T01:20:50.079Z,14.50
2019-05-25T01:23:18.859Z,14.50
2019-05-25T01:25:47.370Z,14.50
2019-05-25T01:28:16.094Z,14.40
2019-05-25T01:30:44.515Z,14.40
2019-05-25T01:33:12.987Z,14.40
2019-05-25T01:35:41.380Z,14.40
2019-05-25T01:38:11.562Z,14.40
2019-05-25T01:40:40.080Z,14.50
2019-05-25T01:43:08.622Z,14.40
2019-05-25T01:45:37.039Z,14.40
2019-05-25T01:48:05.404Z,14.30
2019-05-25T01:50:33.769Z,14.40
2019-05-25T01:53:04.026Z,14.30
2019-05-25T01:55:32.490Z,14.30
2019-05-25T01:58:01.040Z,14.30
2019-05-25T02:00:29.433Z,14.30
2019-05-25T02:02:59.397Z,14.30
2019-05-25T02:05:27.865Z,14.30
2019-05-25T02:07:56.359Z,14.30
2019-05-25T02:10:24.831Z,14.20
2019-05-25T02:12:53.355Z,14.30
2019-05-25T02:15:23.539Z,14.30
2019-05-25T02:17:51.918Z,14.20
2019-05-25T02:20:20.418Z,14.20
2019-05-25T02:22:48.802Z,14.20
2019-05-25T02:25:18.986Z,14.20
2019-05-25T02:27:47.680Z,14.20
2019-05-25T02:30:16.894Z,14.20
2019-05-25T02:32:46.947Z,14.20
2019-05-25T02:35:26.880Z,14.20
2019-05-25T02:37:56.422Z,14.20
2019-05-25T02:40:24.907Z,14.20
2019-05-25T02:42:53.696Z,14.10
2019-05-25T02:45:22.086Z,14.10
2019-05-25T02:47:50.769Z,14.10
2019-05-25T02:50:19.849Z,14.10
2019-05-25T02:52:48.374Z,14.00
2019-05-25T02:55:32.990Z,14.00
2019-05-25T02:57:49.984Z,14.00
2019-05-25T03:00:31.244Z,14.00
2019-05-25T03:03:00.357Z,14.00
2019-05-25T03:05:29.142Z,14.00
2019-05-25T03:07:58.150Z,14.00
2019-05-25T03:10:28.856Z,13.90
2019-05-25T03:12:59.227Z,13.90
2019-05-25T03:15:27.713Z,13.90
2019-05-25T03:17:56.492Z,13.90
2019-05-25T03:20:24.990Z,13.80
2019-05-25T03:22:53.389Z,13.80
2019-05-25T03:25:21.780Z,13.80
2019-05-25T03:27:50.168Z,13.80
2019-05-25T03:30:30.428Z,13.80
2019-05-25T03:32:59.003Z,13.80
2019-05-25T03:35:27.402Z,13.80
2019-05-25T03:37:55.819Z,13.80
2019-05-25T03:40:24.328Z,13.80
2019-05-25T03:42:52.947Z,13.70
2019-05-25T03:45:21.428Z,13.80
2019-05-25T03:47:49.959Z,13.80
2019-05-25T03:50:18.701Z,13.80
2019-05-25T03:52:47.197Z,13.80
2019-05-25T03:55:15.773Z,13.80
2019-05-25T03:57:44.644Z,13.80
2019-05-25T04:00:13.655Z,13.80
2019-05-25T04:02:42.325Z,13.80
2019-05-25T04:05:10.976Z,13.80
2019-05-25T04:07:39.462Z,13.80
2019-05-25T04:10:08.098Z,13.80
2019-05-25T04:12:36.570Z,13.90
2019-05-25T04:15:05.469Z,13.90
2019-05-25T04:17:34.183Z,13.90
2019-05-25T04:20:02.674Z,13.90
2019-05-25T04:22:32.721Z,13.90
2019-05-25T04:25:01.230Z,14.00
2019-05-25T04:27:29.700Z,13.90
2019-05-25T04:29:58.189Z,13.90
2019-05-25T04:32:26.787Z,14.00
2019-05-25T04:34:55.711Z,14.00
2019-05-25T04:37:24.383Z,14.00
2019-05-25T04:39:53.065Z,14.10
2019-05-25T04:42:22.184Z,14.00
2019-05-25T04:44:51.069Z,14.00
2019-05-25T04:47:27.019Z,14.10
2019-05-25T04:49:51.762Z,14.10
2019-05-25T04:52:20.490Z,14.10
2019-05-25T04:54:49.087Z,14.10
2019-05-25T04:57:17.559Z,14.10
2019-05-25T04:59:46.553Z,14.20
2019-05-25T05:02:15.383Z,14.20
2019-05-25T05:04:44.366Z,14.20
2019-05-25T05:07:12.970Z,14.30
2019-05-25T05:09:41.564Z,14.30
2019-05-25T05:12:09.949Z,14.40
2019-05-25T05:14:38.453Z,14.40
2019-05-25T05:17:06.936Z,14.50
2019-05-25T05:19:35.408Z,14.50
2019-05-25T05:22:05.866Z,14.50
2019-05-25T05:24:36.188Z,14.60
2019-05-25T05:27:04.699Z,14.70
2019-05-25T05:29:33.080Z,14.60
2019-05-25T05:32:02.507Z,14.70
2019-05-25T05:34:30.992Z,14.70
2019-05-25T05:37:00.790Z,14.70
2019-05-25T05:39:30.167Z,14.70
2019-05-25T05:42:00.098Z,14.80
2019-05-25T05:44:30.948Z,14.90
2019-05-25T05:47:01.324Z,14.90
2019-05-25T05:49:30.320Z,14.90
2019-05-25T05:52:02.170Z,15.00
2019-05-25T05:54:32.160Z,15.00
2019-05-25T05:57:11.902Z,15.00
2019-05-25T05:59:31.851Z,15.00
2019-05-25T06:02:00.628Z,15.10
2019-05-25T06:04:29.328Z,15.10
2019-05-25T06:06:58.597Z,15.10
2019-05-25T06:09:27.368Z,15.10
2019-05-25T06:11:55.975Z,15.20
2019-05-25T06:14:24.977Z,15.20
2019-05-25T06:16:53.733Z,15.30
2019-05-25T06:19:22.388Z,15.30
2019-05-25T06:21:51.254Z,15.40
2019-05-25T06:24:20.144Z,15.40
2019-05-25T06:26:49.685Z,15.40
2019-05-25T06:29:18.080Z,15.50
2019-05-25T06:31:46.615Z,15.50
2019-05-25T06:34:15.750Z,15.50
2019-05-25T06:36:44.507Z,15.60
2019-05-25T06:39:13.250Z,15.70
2019-05-25T06:41:41.837Z,15.70
2019-05-25T06:44:11.810Z,15.70
2019-05-25T06:46:40.637Z,15.80
2019-05-25T06:49:09.976Z,15.80
2019-05-25T06:51:38.767Z,15.90
2019-05-25T06:54:07.964Z,16.00
2019-05-25T06:56:36.492Z,16.10
2019-05-25T06:59:05.374Z,16.20
2019-05-25T07:01:40.373Z,16.20
2019-05-25T07:04:10.093Z,16.40
2019-05-25T07:06:38.748Z,16.50
2019-05-25T07:09:07.732Z,16.60
2019-05-25T07:11:36.358Z,16.70
2019-05-25T07:14:05.914Z,16.80
2019-05-25T07:16:34.521Z,16.90
2019-05-25T07:19:04.635Z,16.90
2019-05-25T07:21:33.332Z,17.00
2019-05-25T07:24:02.613Z,17.10
2019-05-25T07:26:31.245Z,17.20
2019-05-25T07:28:59.957Z,17.20
2019-05-25T07:31:32.673Z,17.40
2019-05-25T07:34:01.217Z,17.40
2019-05-25T07:36:29.635Z,17.50
2019-05-25T07:38:58.235Z,17.60
2019-05-25T07:41:26.667Z,17.70
2019-05-25T07:43:55.327Z,17.80
2019-05-25T07:46:23.717Z,17.80
2019-05-25T07:48:52.340Z,17.90
2019-05-25T07:51:20.944Z,18.00
2019-05-25T07:53:49.447Z,18.10
2019-05-25T07:56:18.052Z,18.10
2019-05-25T07:58:46.554Z,18.20
2019-05-25T08:01:15.146Z,18.30
2019-05-25T08:03:43.588Z,18.40
2019-05-25T08:06:12.044Z,18.50
2019-05-25T08:08:40.572Z,18.60
2019-05-25T08:11:09.264Z,18.70
2019-05-25T08:13:38.104Z,18.90
2019-05-25T08:16:06.640Z,19.00
2019-05-25T08:18:35.232Z,19.00
2019-05-25T08:21:03.830Z,19.10
2019-05-25T08:23:32.524Z,19.20
2019-05-25T08:26:01.183Z,19.30
2019-05-25T08:28:33.042Z,19.30
2019-05-25T08:31:01.721Z,19.30
2019-05-25T08:33:30.373Z,19.40
2019-05-25T08:35:59.017Z,19.40
2019-05-25T08:38:27.415Z,19.50
2019-05-25T08:40:55.926Z,19.60
2019-05-25T08:43:24.486Z,19.80
2019-05-25T08:45:53.034Z,19.80
2019-05-25T08:48:21.644Z,19.80
2019-05-25T08:50:50.362Z,19.90
2019-05-25T08:53:23.182Z,20.00
2019-05-25T08:55:49.191Z,20.00
2019-05-25T08:58:17.801Z,20.20
2019-05-25T09:00:46.348Z,20.20
2019-05-25T09:03:14.975Z,20.20
2019-05-25T09:05:43.716Z,20.30
2019-05-25T09:08:12.120Z,20.40
2019-05-25T09:10:40.743Z,20.30
2019-05-25T09:13:10.928Z,20.30
2019-05-25T09:15:39.452Z,20.40
2019-05-25T09:18:07.848Z,20.50
2019-05-25T09:20:36.396Z,20.60
2019-05-25T09:23:05.328Z,20.80
2019-05-25T09:25:33.991Z,20.90
2019-05-25T09:28:02.422Z,20.80
2019-05-25T09:30:30.939Z,20.90
2019-05-25T09:32:59.452Z,21.00
2019-05-25T09:35:27.949Z,21.00
2019-05-25T09:37:56.450Z,21.20
2019-05-25T09:40:25.462Z,21.40
2019-05-25T09:42:54.046Z,21.40
2019-05-25T09:45:22.650Z,21.50
2019-05-25T09:47:51.208Z,21.60
2019-05-25T09:50:19.957Z,21.60
2019-05-25T09:52:48.872Z,21.60
2019-05-25T09:55:17.655Z,21.60
2019-05-25T09:57:46.279Z,21.60
2019-05-25T10:00:15.803Z,21.60
2019-05-25T10:02:44.667Z,21.70
2019-05-25T10:05:15.249Z,21.70
2019-05-25T10:07:43.752Z,21.80
2019-05-25T10:10:12.540Z,21.90
2019-05-25T10:12:41.165Z,22.00
2019-05-25T10:15:10.369Z,22.00
2019-05-25T10:17:38.922Z,22.00
2019-05-25T10:20:07.406Z,22.00
2019-05-25T10:22:36.021Z,21.90
2019-05-25T10:25:05.453Z,21.90
2019-05-25T10:27:34.412Z,21.80
2019-05-25T10:30:03.711Z,21.90
2019-05-25T10:32:33.957Z,22.00
2019-05-25T10:35:02.869Z,22.20
2019-05-25T10:37:31.388Z,22.40
2019-05-25T10:40:00.003Z,22.60
2019-05-25T10:42:29.209Z,22.70
2019-05-25T10:44:57.989Z,22.90
2019-05-25T10:47:26.383Z,22.90
2019-05-25T10:49:55.094Z,22.90
2019-05-25T10:52:23.609Z,22.90
2019-05-25T10:54:52.382Z,22.70
2019-05-25T10:57:21.018Z,22.70
2019-05-25T10:59:52.978Z,22.70
2019-05-25T11:02:20.429Z,22.80
2019-05-25T11:04:48.957Z,22.80
2019-05-25T11:07:18.229Z,22.70
2019-05-25T11:09:46.647Z,22.70
2019-05-25T11:12:15.373Z,22.80
2019-05-25T11:14:43.969Z,22.80
2019-05-25T11:17:12.652Z,22.80
2019-05-25T11:19:41.240Z,22.90
2019-05-25T11:22:09.892Z,22.80
2019-05-25T11:24:38.415Z,22.90
2019-05-25T11:27:07.150Z,23.00
2019-05-25T11:29:35.592Z,23.20
2019-05-25T11:32:05.777Z,23.30
2019-05-25T11:34:34.939Z,23.50
2019-05-25T11:37:03.304Z,23.60
2019-05-25T11:39:31.678Z,23.80
2019-05-25T11:42:00.152Z,23.80
2019-05-25T11:44:29.272Z,23.80
2019-05-25T11:46:57.871Z,23.80
2019-05-25T11:49:26.248Z,23.90
2019-05-25T11:51:54.622Z,23.80
2019-05-25T11:54:23.150Z,23.80
2019-05-25T11:56:51.527Z,23.70
2019-05-25T11:59:20.126Z,23.70
2019-05-25T12:01:53.701Z,23.70
2019-05-25T12:04:22.362Z,23.80
2019-05-25T12:06:51.184Z,23.80
2019-05-25T12:09:19.569Z,24.00
2019-05-25T12:11:49.073Z,24.30
2019-05-25T12:14:17.577Z,24.50
2019-05-25T12:16:46.098Z,24.80
2019-05-25T12:19:15.157Z,25.00
2019-05-25T12:21:45.076Z,25.20
2019-05-25T12:24:13.618Z,25.40
2019-05-25T12:26:42.214Z,25.40
2019-05-25T12:29:11.101Z,25.20
2019-05-25T12:31:41.685Z,25.10
2019-05-25T12:34:10.702Z,25.00
2019-05-25T12:36:39.674Z,25.20
2019-05-25T12:39:08.282Z,25.40
2019-05-25T12:41:36.845Z,25.60
2019-05-25T12:44:05.290Z,25.80
2019-05-25T12:46:34.013Z,25.90
2019-05-25T12:49:02.445Z,26.30
2019-05-25T12:51:31.295Z,26.70
2019-05-25T12:54:00.029Z,26.90
2019-05-25T12:56:28.413Z,27.00
2019-05-25T12:58:57.397Z,26.80
2019-05-25T13:01:25.909Z,26.60
2019-05-25T13:03:55.518Z,26.40
2019-05-25T13:06:23.944Z,26.30
2019-05-25T13:08:52.841Z,26.30
2019-05-25T13:11:21.290Z,26.40
2019-05-25T13:13:49.965Z,26.60
2019-05-25T13:16:18.441Z,26.90
2019-05-25T13:18:46.909Z,27.00
2019-05-25T13:21:15.637Z,27.20
2019-05-25T13:23:44.407Z,27.10
2019-05-25T13:26:14.398Z,27.30
2019-05-25T13:28:43.125Z,27.30
2019-05-25T13:31:12.375Z,27.60
2019-05-25T13:33:41.055Z,27.80
2019-05-25T13:36:09.858Z,28.10
2019-05-25T13:38:38.788Z,28.30
2019-05-25T13:41:07.366Z,28.00
2019-05-25T13:43:36.339Z,27.80
2019-05-25T13:46:04.835Z,27.90
2019-05-25T13:48:33.765Z,28.20
2019-05-25T13:51:02.265Z,28.50
2019-05-25T13:53:33.010Z,28.40
2019-05-25T13:56:01.408Z,28.20
2019-05-25T13:58:29.804Z,27.70
2019-05-25T14:00:58.173Z,27.50
2019-05-25T14:03:26.582Z,27.30
2019-05-25T14:05:55.050Z,27.30
2019-05-25T14:08:24.043Z,27.10
2019-05-25T14:10:53.110Z,26.90
2019-05-25T14:13:21.950Z,26.80
2019-05-25T14:16:05.776Z,26.80
2019-05-25T14:18:21.563Z,26.80
2019-05-25T14:20:50.043Z,26.80
2019-05-25T14:23:18.767Z,26.70
2019-05-25T14:25:47.297Z,26.50
2019-05-25T14:28:15.764Z,26.20
2019-05-25T14:30:44.481Z,26.20
2019-05-25T14:33:14.370Z,26.00
2019-05-25T14:35:42.973Z,26.00
2019-05-25T14:38:11.745Z,25.90
2019-05-25T14:40:40.287Z,25.90
2019-05-25T14:43:09.296Z,25.80
2019-05-25T14:45:37.764Z,25.80
2019-05-25T14:48:06.151Z,25.60
2019-05-25T14:50:35.056Z,25.50
2019-05-25T14:53:03.520Z,25.20
2019-05-25T14:55:31.892Z,25.10
2019-05-25T14:58:02.487Z,25.00
2019-05-25T15:00:31.388Z,25.00
2019-05-25T15:03:00.136Z,24.90
2019-05-25T15:05:28.802Z,24.80
2019-05-25T15:07:57.620Z,24.80
2019-05-25T15:10:26.219Z,24.80
2019-05-25T15:12:54.695Z,24.80
2019-05-25T15:15:23.732Z,24.70
2019-05-25T15:17:52.100Z,24.60
2019-05-25T15:20:20.598Z,24.60
2019-05-25T15:22:49.614Z,24.50
2019-05-25T15:25:18.468Z,24.40
2019-05-25T15:27:46.864Z,24.00
2019-05-25T15:30:15.747Z,23.80
2019-05-25T15:32:44.148Z,23.80
2019-05-25T15:35:13.169Z,23.70
2019-05-25T15:37:41.807Z,23.50
2019-05-25T15:40:11.084Z,23.50
2019-05-25T15:42:39.864Z,23.30
2019-05-25T15:45:09.601Z,23.20
2019-05-25T15:47:38.335Z,23.10
2019-05-25T15:50:08.317Z,23.00
2019-05-25T15:52:36.695Z,22.80
2019-05-25T15:55:08.090Z,22.70
2019-05-25T15:57:36.983Z,22.60
2019-05-25T16:00:07.617Z,22.50
2019-05-25T16:02:37.223Z,22.40
2019-05-25T16:05:08.318Z,22.40
2019-05-25T16:07:42.514Z,22.30
2019-05-25T16:10:11.013Z,22.30
2019-05-25T16:12:39.670Z,22.20
2019-05-25T16:15:10.934Z,22.20
2019-05-25T16:17:39.518Z,22.10
2019-05-25T16:20:08.397Z,21.90
2019-05-25T16:22:36.797Z,21.80
2019-05-25T16:25:05.851Z,21.60
2019-05-25T16:27:34.754Z,21.50
2019-05-25T16:30:04.065Z,21.60
2019-05-25T16:32:34.255Z,21.50
2019-05-25T16:35:02.661Z,21.50
2019-05-25T16:37:31.103Z,21.40
2019-05-25T16:40:00.103Z,21.30
2019-05-25T16:42:28.600Z,21.30
2019-05-25T16:44:57.169Z,21.20
2019-05-25T16:47:25.552Z,21.10
2019-05-25T16:49:53.939Z,21.10
2019-05-25T16:52:22.425Z,21.10
2019-05-25T16:54:51.046Z,21.10
2019-05-25T16:57:19.579Z,21.10
2019-05-25T16:59:48.453Z,21.00
2019-05-25T17:02:17.146Z,21.10
2019-05-25T17:04:45.716Z,21.20
2019-05-25T17:07:15.228Z,21.20
2019-05-25T17:09:43.603Z,21.20
2019-05-25T17:12:12.095Z,21.20
2019-05-25T17:14:40.486Z,21.20
2019-05-25T17:17:09.039Z,21.20
2019-05-25T17:19:37.423Z,21.10
2019-05-25T17:22:05.791Z,21.10
2019-05-25T17:24:34.419Z,21.10
2019-05-25T17:27:02.824Z,21.00
2019-05-25T17:29:31.328Z,21.00
2019-05-25T17:32:05.483Z,20.90
2019-05-25T17:34:33.906Z,20.90
2019-05-25T17:37:02.250Z,20.90
2019-05-25T17:39:31.016Z,20.90
2019-05-25T17:42:01.184Z,20.80
2019-05-25T17:44:30.199Z,20.80
2019-05-25T17:46:59.675Z,20.70
2019-05-25T17:49:28.476Z,20.70
2019-05-25T17:51:58.918Z,20.60
2019-05-25T17:54:27.585Z,20.50
2019-05-25T17:56:56.085Z,20.40
2019-05-25T17:59:24.965Z,20.30
2019-05-25T18:01:54.046Z,20.30
2019-05-25T18:04:25.774Z,20.30
2019-05-25T18:06:54.530Z,20.30
2019-05-25T18:09:22.912Z,20.20
2019-05-25T18:11:51.291Z,20.10
2019-05-25T18:14:19.712Z,20.00
2019-05-25T18:16:48.088Z,19.90
2019-05-25T18:19:16.569Z,19.80
2019-05-25T18:21:47.013Z,19.80
2019-05-25T18:24:15.896Z,19.70
2019-05-25T18:26:44.528Z,19.60
2019-05-25T18:29:13.027Z,19.60
2019-05-25T18:31:41.521Z,19.60
2019-05-25T18:34:21.733Z,19.50
2019-05-25T18:36:40.277Z,19.40
2019-05-25T18:39:08.779Z,19.30
2019-05-25T18:41:37.167Z,19.20
2019-05-25T18:44:05.633Z,19.20
2019-05-25T18:46:34.147Z,19.10
2019-05-25T18:49:02.622Z,19.00
2019-05-25T18:51:31.111Z,18.90
2019-05-25T18:53:59.595Z,18.90
2019-05-25T18:56:28.098Z,18.90
2019-05-25T18:58:56.578Z,18.80
2019-05-25T19:01:25.079Z,18.80
2019-05-25T19:03:53.646Z,18.70
2019-05-25T19:06:22.120Z,18.70
2019-05-25T19:08:50.514Z,18.70
2019-05-25T19:11:18.894Z,18.60
2019-05-25T19:13:47.384Z,18.60
2019-05-25T19:16:16.118Z,18.50
2019-05-25T19:18:44.619Z,18.50
2019-05-25T19:21:13.192Z,18.50
2019-05-25T19:23:41.867Z,18.40
2019-05-25T19:26:10.548Z,18.30
2019-05-25T19:28:39.278Z,18.30
2019-05-25T19:31:07.954Z,18.20
2019-05-25T19:33:36.587Z,18.20
2019-05-25T19:36:05.283Z,18.10
2019-05-25T19:38:33.688Z,18.10
2019-05-25T19:41:02.177Z,18.10
2019-05-25T19:43:30.809Z,18.00
2019-05-25T19:45:59.806Z,18.00
2019-05-25T19:48:28.317Z,18.00
2019-05-25T19:50:56.876Z,17.90
2019-05-25T19:53:26.548Z,17.80
2019-05-25T19:55:56.933Z,17.90
2019-05-25T19:58:25.400Z,17.80
2019-05-25T20:00:54.219Z,17.80
2019-05-25T20:03:23.192Z,17.80
2019-05-25T20:05:51.720Z,17.70
2019-05-25T20:08:20.484Z,17.70
2019-05-25T20:10:49.003Z,17.70
2019-05-25T20:13:17.911Z,17.60
2019-05-25T20:15:46.385Z,17.60
2019-05-25T20:18:15.250Z,17.60
2019-05-25T20:20:43.763Z,17.50
2019-05-25T20:23:12.307Z,17.50
2019-05-25T20:25:40.866Z,17.50
2019-05-25T20:28:09.366Z,17.50
2019-05-25T20:30:37.942Z,17.50
2019-05-25T20:33:06.431Z,17.40
2019-05-25T20:35:35.839Z,17.40
2019-05-25T20:38:04.432Z,17.40
2019-05-25T20:40:35.169Z,17.30
2019-05-25T20:43:03.817Z,17.30
2019-05-25T20:45:32.277Z,17.30
2019-05-25T20:48:00.662Z,17.30
2019-05-25T20:50:29.067Z,17.30
2019-05-25T20:52:57.654Z,17.30
2019-05-25T20:55:26.158Z,17.30
2019-05-25T20:57:54.630Z,17.30
2019-05-25T21:00:24.534Z,17.30
2019-05-25T21:03:05.401Z,17.30
2019-05-25T21:05:23.533Z,17.20
2019-05-25T21:07:52.107Z,17.20
2019-05-25T21:10:20.487Z,17.20
2019-05-25T21:12:50.651Z,17.20
2019-05-25T21:15:19.259Z,17.20
2019-05-25T21:17:47.691Z,17.10
2019-05-25T21:20:16.230Z,17.10
2019-05-25T21:22:44.692Z,17.10
2019-05-25T21:25:13.673Z,17.10
2019-05-25T21:27:42.650Z,17.00
2019-05-25T21:30:11.735Z,17.00
2019-05-25T21:32:40.220Z,16.90
2019-05-25T21:35:09.015Z,16.90
2019-05-25T21:37:37.480Z,16.90
2019-05-25T21:40:07.328Z,16.90
2019-05-25T21:42:35.853Z,16.90
2019-05-25T21:45:05.396Z,16.80
2019-05-25T21:47:33.756Z,16.80
2019-05-25T21:50:02.175Z,16.80
2019-05-25T21:52:30.958Z,16.80
2019-05-25T21:54:59.575Z,16.80
2019-05-25T21:57:28.829Z,16.70
2019-05-25T21:59:57.207Z,16.70
2019-05-25T22:02:25.668Z,16.70
2019-05-25T22:04:54.075Z,16.70
2019-05-25T22:07:22.447Z,16.70
2019-05-25T22:09:52.544Z,16.70
2019-05-25T22:12:20.907Z,16.70
2019-05-25T22:14:49.316Z,16.70
2019-05-25T22:17:17.791Z,16.70
2019-05-25T22:19:46.179Z,16.70
2019-05-25T22:22:14.635Z,16.70
2019-05-25T22:24:43.145Z,16.70
2019-05-25T22:27:11.534Z,16.70
2019-05-25T22:29:41.702Z,16.70
2019-05-25T22:32:14.983Z,16.70
2019-05-25T22:34:45.153Z,16.70
2019-05-25T22:37:14.047Z,16.70
2019-05-25T22:39:42.735Z,16.60
2019-05-25T22:42:11.096Z,16.60
2019-05-25T22:44:39.634Z,16.60
2019-05-25T22:47:09.671Z,16.60
2019-05-25T22:49:38.271Z,16.60
2019-05-25T22:52:06.738Z,16.60
2019-05-25T22:54:35.170Z,16.60
2019-05-25T22:57:05.147Z,16.60
2019-05-25T22:59:33.541Z,16.50
2019-05-25T23:02:03.940Z,16.50
2019-05-25T23:04:35.536Z,16.50
2019-05-25T23:07:04.046Z,16.50
2019-05-25T23:09:33.948Z,16.40
2019-05-25T23:12:02.520Z,16.40
2019-05-25T23:14:30.991Z,16.40
2019-05-25T23:16:59.368Z,16.40
2019-05-25T23:19:27.732Z,16.30
2019-05-25T23:21:56.903Z,16.30
2019-05-25T23:24:25.303Z,16.30
2019-05-25T23:26:53.693Z,16.30
2019-05-25T23:29:22.070Z,16.20
2019-05-25T23:31:50.453Z,16.20
2019-05-25T23:34:18.921Z,16.10
2019-05-25T23:36:47.539Z,16.10
2019-05-25T23:39:15.906Z,16.00
2019-05-25T23:41:44.272Z,16.00
2019-05-25T23:44:13.457Z,15.90
2019-05-25T23:46:42.037Z,15.90
2019-05-25T23:49:10.513Z,15.80
2019-05-25T23:51:39.890Z,15.80
2019-05-25T23:54:08.453Z,15.70
2019-05-25T23:56:36.820Z,15.70
2019-05-25T23:59:05.215Z,15.70
